createdAt,value
2023-01-12T00:01:42.536Z,70.38
2023-01-12T00:04:12.489Z,70.64
2023-01-12T00:06:39.858Z,70.66
2023-01-12T00:09:07.770Z,70.26
2023-01-12T00:11:35.763Z,70.30
2023-01-12T00:14:03.312Z,70.59
2023-01-12T00:16:39.598Z,70.52
2023-01-12T00:19:11.627Z,70.39
2023-01-12T00:21:58.326Z,70.30
2023-01-12T00:24:26.495Z,70.21
2023-01-12T00:26:53.913Z,70.22
2023-01-12T00:29:21.549Z,70.66
2023-01-12T00:31:48.596Z,70.57
2023-01-12T00:34:16.087Z,70.39
2023-01-12T00:36:43.421Z,70.56
2023-01-12T00:39:10.869Z,70.31
2023-01-12T00:41:57.048Z,70.57
2023-01-12T00:44:42.637Z,70.11
2023-01-12T00:47:10.291Z,70.22
2023-01-12T00:49:42.252Z,69.63
2023-01-12T00:52:24.935Z,70.33
2023-01-12T00:54:56.852Z,69.89
2023-01-12T00:57:23.851Z,70.30
2023-01-12T00:59:51.810Z,70.49
2023-01-12T01:02:18.884Z,70.07
2023-01-12T01:04:45.921Z,70.17
2023-01-12T01:07:13.528Z,70.24
2023-01-12T01:09:40.572Z,70.25
2023-01-12T01:12:07.882Z,70.47
2023-01-12T01:14:34.931Z,70.26
2023-01-12T01:17:02.002Z,70.30
2023-01-12T01:19:29.049Z,70.28
2023-01-12T01:21:56.207Z,70.44
2023-01-12T01:24:23.940Z,70.47
2023-01-12T01:26:51.700Z,70.23
2023-01-12T01:29:19.005Z,70.70
2023-01-12T01:31:47.857Z,70.81
2023-01-12T01:34:15.230Z,70.25
2023-01-12T01:36:42.916Z,70.41
2023-01-12T01:39:10.187Z,70.27
2023-01-12T01:41:42.789Z,70.29
2023-01-12T01:44:29.355Z,70.78
2023-01-12T01:47:01.236Z,70.60
2023-01-12T01:49:31.377Z,70.78
2023-01-12T01:52:02.010Z,70.56
2023-01-12T01:54:31.214Z,70.71
2023-01-12T01:56:58.465Z,70.51
2023-01-12T01:59:28.566Z,70.21
2023-01-12T02:01:56.486Z,70.26
2023-01-12T02:04:25.851Z,70.64
2023-01-12T02:06:55.087Z,70.59
2023-01-12T02:09:24.415Z,70.09
2023-01-12T02:12:13.549Z,70.61
2023-01-12T02:15:00.034Z,70.31
2023-01-12T02:17:45.737Z,70.30
2023-01-12T02:20:31.147Z,70.36
2023-01-12T02:22:58.062Z,70.35
2023-01-12T02:25:35.372Z,70.68
2023-01-12T02:28:20.970Z,70.39
2023-01-12T02:31:00.222Z,70.32
2023-01-12T02:33:39.638Z,70.24
2023-01-12T02:36:15.701Z,70.27
2023-01-12T02:39:05.945Z,70.38
2023-01-12T02:42:29.812Z,70.53
2023-01-12T02:45:05.692Z,70.62
2023-01-12T02:47:35.690Z,70.48
2023-01-12T02:50:06.656Z,70.50
2023-01-12T02:52:34.579Z,70.11
2023-01-12T02:55:02.875Z,70.35
2023-01-12T02:57:32.000Z,70.24
2023-01-12T03:00:00.390Z,70.61
2023-01-12T03:02:28.163Z,70.39
2023-01-12T03:04:55.413Z,70.64
2023-01-12T03:07:52.955Z,70.61
2023-01-12T03:10:20.029Z,70.44
2023-01-12T03:12:49.152Z,70.24
2023-01-12T03:15:17.607Z,70.40
2023-01-12T03:17:54.280Z,70.17
2023-01-12T03:20:26.483Z,70.53
2023-01-12T03:22:57.973Z,70.54
2023-01-12T03:25:26.734Z,70.26
2023-01-12T03:27:57.862Z,70.28
2023-01-12T03:30:31.854Z,70.12
2023-01-12T03:32:59.089Z,70.40
2023-01-12T03:35:27.797Z,70.35
2023-01-12T03:37:58.176Z,70.34
2023-01-12T03:40:31.971Z,70.38
2023-01-12T03:43:10.872Z,70.73
2023-01-12T03:45:58.886Z,70.32
2023-01-12T03:48:29.649Z,70.34
2023-01-12T03:51:04.895Z,70.24
2023-01-12T03:53:33.349Z,70.26
2023-01-12T03:56:04.591Z,70.42
2023-01-12T03:58:34.926Z,70.50
2023-01-12T04:01:02.599Z,70.50
2023-01-12T04:03:30.053Z,70.59
2023-01-12T04:05:57.142Z,70.18
2023-01-12T04:08:24.169Z,70.58
2023-01-12T04:10:51.111Z,70.29
2023-01-12T04:13:18.153Z,70.51
2023-01-12T04:15:48.506Z,70.43
2023-01-12T04:18:15.551Z,70.14
2023-01-12T04:20:47.180Z,70.35
2023-01-12T04:23:14.087Z,70.55
2023-01-12T04:25:41.255Z,70.29
2023-01-12T04:28:08.606Z,70.23
2023-01-12T04:30:42.868Z,70.09
2023-01-12T04:33:14.348Z,70.48
2023-01-12T04:36:03.460Z,70.21
2023-01-12T04:38:34.497Z,70.34
2023-01-12T04:41:43.610Z,70.61
2023-01-12T04:45:10.468Z,70.71
2023-01-12T04:51:49.017Z,70.45
2023-01-12T04:54:25.333Z,70.21
2023-01-12T04:56:55.191Z,70.39
2023-01-12T04:59:38.463Z,70.11
2023-01-12T05:02:14.632Z,70.45
2023-01-12T05:04:42.792Z,70.30
2023-01-12T05:07:12.298Z,70.64
2023-01-12T05:09:58.145Z,70.21
2023-01-12T05:12:37.547Z,70.41
2023-01-12T05:15:05.231Z,70.61
2023-01-12T05:17:40.155Z,70.29
2023-01-12T05:20:17.921Z,70.30
2023-01-12T05:22:51.944Z,70.55
2023-01-12T05:25:23.151Z,70.30
2023-01-12T05:28:10.824Z,70.22
2023-01-12T05:30:43.428Z,70.24
2023-01-12T05:33:30.761Z,70.71
2023-01-12T05:36:33.226Z,70.24
2023-01-12T05:39:00.895Z,70.41
2023-01-12T05:42:22.234Z,70.51
2023-01-12T05:44:53.770Z,70.67
2023-01-12T05:47:23.373Z,70.66
2023-01-12T05:49:52.941Z,70.73
2023-01-12T05:52:29.951Z,70.48
2023-01-12T05:55:01.831Z,70.17
2023-01-12T05:57:31.478Z,70.27
2023-01-12T05:59:58.765Z,70.47
2023-01-12T06:02:29.765Z,70.80
2023-01-12T06:04:57.342Z,70.35
2023-01-12T06:07:27.355Z,70.45
2023-01-12T06:10:01.263Z,70.30
2023-01-12T06:12:55.149Z,70.31
2023-01-12T06:15:25.568Z,70.61
2023-01-12T06:17:52.747Z,70.13
2023-01-12T06:20:24.211Z,70.70
2023-01-12T06:22:54.789Z,70.07
2023-01-12T06:25:40.690Z,70.14
2023-01-12T06:28:11.575Z,70.53
2023-01-12T06:30:39.375Z,69.50
2023-01-12T06:33:06.965Z,70.08
2023-01-12T06:35:36.831Z,70.26
2023-01-12T06:38:04.052Z,69.82
2023-01-12T06:40:34.795Z,70.25
2023-01-12T06:43:02.889Z,69.21
2023-01-12T06:49:07.091Z,70.21
2023-01-12T06:51:49.379Z,70.18
2023-01-12T06:54:22.490Z,70.16
2023-01-12T06:56:56.060Z,69.15
2023-01-12T06:59:32.216Z,70.14
2023-01-12T07:05:02.752Z,69.95
2023-01-12T07:08:09.457Z,70.26
2023-01-12T07:10:39.519Z,69.12
2023-01-12T07:13:14.969Z,69.06
2023-01-12T07:15:42.360Z,70.04
2023-01-12T07:18:41.712Z,69.96
2023-01-12T07:21:12.257Z,69.32
2023-01-12T07:23:48.216Z,69.05
2023-01-12T07:29:40.180Z,68.78
2023-01-12T07:32:14.944Z,69.70
2023-01-12T07:34:42.587Z,69.07
2023-01-12T07:37:13.225Z,69.93
2023-01-12T07:39:40.257Z,69.68
2023-01-12T07:42:26.031Z,68.96
2023-01-12T07:45:00.270Z,69.72
2023-01-12T07:47:28.386Z,68.98
2023-01-12T07:50:02.153Z,69.79
2023-01-12T07:52:32.948Z,69.78
2023-01-12T07:55:09.966Z,68.90
2023-01-12T07:57:37.671Z,69.85
2023-01-12T08:00:13.459Z,68.75
2023-01-12T08:02:53.293Z,68.73
2023-01-12T08:05:21.105Z,68.68
2023-01-12T08:07:55.958Z,68.83
2023-01-12T08:10:25.967Z,68.80
2023-01-12T08:13:00.025Z,69.26
2023-01-12T08:15:35.112Z,68.92
2023-01-12T08:18:24.941Z,69.06
2023-01-12T08:21:04.062Z,68.77
2023-01-12T08:26:36.323Z,69.75
2023-01-12T08:29:38.419Z,69.44
2023-01-12T08:32:13.446Z,69.15
2023-01-12T08:34:48.944Z,69.11
2023-01-12T08:37:21.498Z,68.98
2023-01-12T08:40:00.628Z,69.18
2023-01-12T08:42:30.239Z,68.75
2023-01-12T08:45:04.360Z,69.34
2023-01-12T08:47:37.105Z,69.91
2023-01-12T08:50:07.613Z,69.62
2023-01-12T08:52:35.128Z,69.03
2023-01-12T08:55:05.211Z,69.35
2023-01-12T08:57:35.635Z,68.95
2023-01-12T09:00:14.163Z,69.50
2023-01-12T09:02:41.569Z,69.62
2023-01-12T09:05:15.446Z,69.41
2023-01-12T09:07:44.829Z,69.00
2023-01-12T09:10:21.929Z,69.97
2023-01-12T09:12:54.167Z,68.92
2023-01-12T09:15:27.597Z,69.60
2023-01-12T09:18:13.192Z,69.26
2023-01-12T09:20:43.527Z,69.72
2023-01-12T09:23:16.854Z,69.49
2023-01-12T09:25:55.015Z,69.64
2023-01-12T09:28:25.996Z,69.84
2023-01-12T09:30:56.154Z,69.72
2023-01-12T09:33:30.984Z,69.15
2023-01-12T09:36:06.725Z,69.20
2023-01-12T09:38:45.650Z,68.97
2023-01-12T09:41:20.178Z,69.70
2023-01-12T09:44:06.116Z,69.12
2023-01-12T09:46:58.857Z,69.44
2023-01-12T09:49:42.612Z,69.04
2023-01-12T09:52:09.523Z,69.25
2023-01-12T09:54:44.093Z,69.29
2023-01-12T09:57:35.062Z,69.28
2023-01-12T10:00:05.779Z,69.11
2023-01-12T10:02:48.158Z,69.33
2023-01-12T10:05:22.037Z,68.88
2023-01-12T10:08:02.538Z,69.63
2023-01-12T10:10:46.878Z,69.09
2023-01-12T10:13:19.249Z,68.93
2023-01-12T10:15:58.836Z,68.86
2023-01-12T10:18:52.400Z,69.15
2023-01-12T10:21:45.531Z,69.06
2023-01-12T10:24:13.766Z,68.62
2023-01-12T10:26:46.796Z,68.85
2023-01-12T10:29:14.433Z,68.71
2023-01-12T10:31:41.620Z,68.78
2023-01-12T10:34:14.647Z,68.89
2023-01-12T10:36:49.413Z,68.80
2023-01-12T10:39:33.267Z,68.73
2023-01-12T10:42:35.397Z,68.75
2023-01-12T10:45:14.414Z,69.05
2023-01-12T10:47:44.692Z,68.83
2023-01-12T10:50:29.466Z,69.09
2023-01-12T10:53:01.066Z,69.27
2023-01-12T10:55:39.280Z,69.32
2023-01-12T10:58:29.786Z,68.77
2023-01-12T11:01:00.348Z,68.93
2023-01-12T11:03:31.295Z,69.25
2023-01-12T11:06:38.423Z,68.71
2023-01-12T11:09:21.019Z,68.70
2023-01-12T11:11:52.827Z,68.63
2023-01-12T11:14:40.061Z,69.02
2023-01-12T11:17:49.532Z,68.82
2023-01-12T11:20:34.410Z,69.04
2023-01-12T11:23:13.013Z,69.06
2023-01-12T11:26:00.414Z,68.85
2023-01-12T11:28:42.100Z,69.10
2023-01-12T11:34:00.569Z,68.83
2023-01-12T11:36:41.637Z,68.87
2023-01-12T11:39:17.112Z,68.93
2023-01-12T11:42:19.024Z,68.84
2023-01-12T11:45:05.436Z,68.85
2023-01-12T11:47:40.898Z,68.71
2023-01-12T11:50:28.600Z,68.80
2023-01-12T11:52:59.362Z,68.54
2023-01-12T11:55:48.344Z,68.77
2023-01-12T11:58:19.454Z,68.96
2023-01-12T12:01:07.805Z,68.75
2023-01-12T12:03:44.072Z,69.13
2023-01-12T12:06:23.731Z,68.87
2023-01-12T12:09:20.268Z,68.97
2023-01-12T12:11:47.487Z,68.89
2023-01-12T12:14:30.035Z,69.00
2023-01-12T12:16:59.311Z,68.94
2023-01-12T12:19:29.560Z,69.24
2023-01-12T12:22:02.979Z,69.03
2023-01-12T12:24:36.247Z,69.19
2023-01-12T12:27:10.621Z,68.89
2023-01-12T12:29:56.705Z,68.88
2023-01-12T12:32:30.660Z,69.08
2023-01-12T12:35:19.017Z,68.87
2023-01-12T12:37:58.834Z,69.14
2023-01-12T12:41:02.987Z,69.09
2023-01-12T12:43:56.065Z,69.37
2023-01-12T12:46:44.037Z,69.02
2023-01-12T12:49:20.866Z,69.24
2023-01-12T12:51:51.350Z,69.20
2023-01-12T12:54:19.637Z,68.86
2023-01-12T12:56:51.136Z,69.00
2023-01-12T12:59:34.077Z,69.11
2023-01-12T13:02:02.618Z,69.39
2023-01-12T13:04:43.163Z,69.13
2023-01-12T13:07:16.997Z,69.06
2023-01-12T13:09:44.945Z,69.15
2023-01-12T13:15:20.901Z,69.15
2023-01-12T13:17:54.792Z,69.28
2023-01-12T13:20:34.934Z,69.47
2023-01-12T13:23:03.330Z,69.42
2023-01-12T13:25:35.320Z,69.70
2023-01-12T13:28:22.063Z,69.06
2023-01-12T13:34:32.084Z,69.78
2023-01-12T13:37:26.401Z,69.74
2023-01-12T13:40:35.828Z,69.45
2023-01-12T13:43:32.612Z,69.25
2023-01-12T13:50:16.140Z,69.74
2023-01-12T13:52:55.843Z,69.46
2023-01-12T14:03:01.126Z,69.38
2023-01-12T14:06:03.041Z,69.92
2023-01-12T14:08:51.286Z,70.00
2023-01-12T14:11:47.162Z,69.39
2023-01-12T14:15:18.723Z,69.97
2023-01-12T14:18:00.921Z,69.52
2023-01-12T14:20:31.002Z,69.55
2023-01-12T14:23:17.207Z,69.53
2023-01-12T14:25:48.538Z,69.27
2023-01-12T14:28:34.683Z,69.74
2023-01-12T14:34:49.726Z,69.70
2023-01-12T14:38:07.861Z,69.84
2023-01-12T14:41:38.614Z,69.27
2023-01-12T14:48:37.233Z,69.99
2023-01-12T14:51:26.622Z,69.56
2023-01-12T14:54:01.381Z,69.93
2023-01-12T14:56:33.537Z,69.70
2023-01-12T14:59:14.428Z,69.49
2023-01-12T15:01:42.195Z,69.52
2023-01-12T15:04:15.151Z,70.11
2023-01-12T15:06:43.509Z,70.12
2023-01-12T15:09:25.063Z,69.93
2023-01-12T15:14:40.260Z,69.79
2023-01-12T15:17:26.018Z,70.06
2023-01-12T15:20:20.392Z,70.28
2023-01-12T15:23:12.956Z,69.89
2023-01-12T15:25:42.805Z,69.91
2023-01-12T15:32:56.916Z,69.77
2023-01-12T15:35:38.531Z,69.60
2023-01-12T15:38:05.452Z,69.74
2023-01-12T15:40:34.553Z,69.93
2023-01-12T15:43:04.999Z,69.88
2023-01-12T15:45:51.711Z,69.94
2023-01-12T15:48:19.142Z,70.06
2023-01-12T15:50:47.974Z,69.70
2023-01-12T15:53:19.802Z,70.00
2023-01-12T15:55:50.175Z,70.20
2023-01-12T15:58:22.832Z,70.08
2023-01-12T16:00:55.463Z,70.05
2023-01-12T16:03:54.569Z,70.16
2023-01-12T16:06:35.168Z,70.27
2023-01-12T16:09:12.968Z,70.05
2023-01-12T16:11:40.537Z,70.29
2023-01-12T16:14:08.313Z,70.16
2023-01-12T16:16:47.044Z,70.24
2023-01-12T16:19:21.435Z,70.17
2023-01-12T16:22:13.633Z,70.28
2023-01-12T16:24:41.014Z,70.31
2023-01-12T16:27:08.377Z,70.31
2023-01-12T16:29:42.551Z,70.05
2023-01-12T16:32:13.940Z,70.29
2023-01-12T16:34:57.381Z,70.13
2023-01-12T16:37:34.970Z,70.09
2023-01-12T16:40:05.068Z,70.31
2023-01-12T16:42:32.736Z,70.49
2023-01-12T16:45:08.800Z,70.33
2023-01-12T16:47:37.117Z,70.50
2023-01-12T16:50:05.676Z,70.36
2023-01-12T16:55:33.453Z,70.25
2023-01-12T16:58:14.524Z,70.43
2023-01-12T17:01:28.040Z,70.63
2023-01-12T17:03:38.867Z,70.54
2023-01-12T17:06:10.212Z,70.35
2023-01-12T17:08:37.828Z,70.27
2023-01-12T17:11:15.461Z,70.29
2023-01-12T17:17:11.676Z,70.22
2023-01-12T17:19:41.507Z,70.30
2023-01-12T17:22:21.116Z,70.11
2023-01-12T17:24:48.709Z,70.29
2023-01-12T17:27:16.219Z,70.35
2023-01-12T17:29:44.179Z,70.16
2023-01-12T17:32:25.111Z,70.35
2023-01-12T17:34:56.463Z,70.30
2023-01-12T17:37:23.569Z,70.22
2023-01-12T17:39:57.059Z,70.46
2023-01-12T17:42:48.595Z,70.38
2023-01-12T17:45:22.551Z,70.28
2023-01-12T17:47:52.868Z,70.43
2023-01-12T17:50:52.713Z,70.36
2023-01-12T17:53:34.529Z,70.28
2023-01-12T17:56:14.492Z,70.29
2023-01-12T17:58:47.257Z,70.32
2023-01-12T18:01:33.763Z,70.25
2023-01-12T18:04:50.618Z,70.38
2023-01-12T18:08:16.707Z,70.33
2023-01-12T18:10:46.867Z,70.31
2023-01-12T18:13:46.258Z,70.46
2023-01-12T18:24:08.238Z,69.99
2023-01-12T18:26:41.104Z,70.45
2023-01-12T18:29:21.202Z,70.30
2023-01-12T18:32:04.100Z,70.35
2023-01-12T18:34:38.463Z,70.31
2023-01-12T18:37:19.008Z,70.55
2023-01-12T18:40:06.827Z,70.29
2023-01-12T18:43:16.431Z,70.38
2023-01-12T18:46:42.375Z,70.47
2023-01-12T18:49:52.841Z,70.11
2023-01-12T18:56:05.118Z,70.21
2023-01-12T18:58:42.906Z,70.28
2023-01-12T19:02:05.282Z,70.36
2023-01-12T19:05:23.995Z,70.59
2023-01-12T19:11:33.123Z,70.17
2023-01-12T19:14:28.046Z,70.56
2023-01-12T19:17:17.875Z,70.41
2023-01-12T19:19:47.802Z,70.89
2023-01-12T19:22:35.435Z,70.51
2023-01-12T19:25:24.309Z,70.58
2023-01-12T19:28:09.993Z,70.51
2023-01-12T19:30:41.636Z,70.33
2023-01-12T19:33:17.831Z,70.57
2023-01-12T19:35:50.807Z,70.54
2023-01-12T19:38:20.965Z,70.66
2023-01-12T19:40:55.639Z,70.48
2023-01-12T19:43:28.743Z,70.23
2023-01-12T19:46:01.225Z,70.62
2023-01-12T19:48:32.499Z,70.38
2023-01-12T19:51:11.425Z,70.32
2023-01-12T19:53:41.727Z,70.40
2023-01-12T19:56:13.111Z,70.31
2023-01-12T19:58:47.634Z,70.35
2023-01-12T20:01:24.958Z,70.46
2023-01-12T20:03:54.984Z,70.56
2023-01-12T20:06:22.678Z,70.32
2023-01-12T20:08:49.856Z,70.73
2023-01-12T20:11:19.018Z,70.92
2023-01-12T20:13:56.792Z,70.45
2023-01-12T20:16:32.169Z,70.63
2023-01-12T20:19:11.284Z,70.49
2023-01-12T20:22:14.493Z,70.55
2023-01-12T20:25:11.537Z,70.50
2023-01-12T20:28:00.922Z,70.78
2023-01-12T20:30:37.750Z,70.37
2023-01-12T20:33:06.209Z,70.56
2023-01-12T20:35:38.612Z,70.71
2023-01-12T20:38:13.535Z,70.42
2023-01-12T20:40:46.473Z,70.35
2023-01-12T20:43:14.149Z,70.68
2023-01-12T20:45:44.690Z,70.22
2023-01-12T20:48:15.788Z,70.51
2023-01-12T20:50:46.637Z,70.65
2023-01-12T20:53:21.236Z,70.68
2023-01-12T20:55:59.677Z,70.03
2023-01-12T20:58:41.637Z,70.74
2023-01-12T21:01:56.869Z,70.39
2023-01-12T21:04:49.413Z,70.54
2023-01-12T21:15:32.581Z,70.48
2023-01-12T21:18:27.962Z,70.62
2023-01-12T21:21:41.900Z,70.82
2023-01-12T21:30:51.915Z,70.56
2023-01-12T21:45:37.790Z,70.46
2023-01-12T22:14:37.842Z,70.56
2023-01-12T22:27:58.326Z,70.70
2023-01-12T22:31:00.383Z,70.84
2023-01-12T22:38:16.704Z,70.71
2023-01-12T22:41:02.578Z,70.38
2023-01-12T22:44:26.044Z,70.59
2023-01-12T22:47:05.001Z,70.79
2023-01-12T22:50:31.170Z,70.60
2023-01-12T22:53:12.785Z,70.63
2023-01-12T22:56:01.825Z,70.17
2023-01-12T22:58:29.264Z,70.62
2023-01-12T23:01:17.169Z,70.49
2023-01-12T23:04:01.088Z,70.89
2023-01-12T23:06:54.394Z,70.82
2023-01-12T23:09:33.436Z,70.76
2023-01-12T23:12:02.706Z,70.56
2023-01-12T23:14:43.577Z,71.52
2023-01-12T23:17:16.549Z,70.72
2023-01-12T23:23:36.164Z,70.74
2023-01-12T23:29:58.445Z,71.00
2023-01-12T23:32:44.495Z,70.87
2023-01-12T23:35:41.637Z,70.89
2023-01-12T23:38:51.944Z,70.84
2023-01-12T23:41:28.793Z,70.78
2023-01-12T23:44:23.655Z,70.60
2023-01-12T23:47:19.040Z,71.19
2023-01-12T23:50:01.649Z,70.70
2023-01-12T23:52:33.875Z,70.74
2023-01-12T23:55:35.130Z,70.71
2023-01-12T23:58:19.387Z,70.83
